CVQ weather

Carnarvon Airport
Carnarvon, Western Australia, Australia

Public forecast

Using degrees Celsius for public forecast. Weather courtesy of forecast.io.

METAR (pilot weather report)

Retrieved 2019/06/18 03:00 UTC (8 minutes ago):

YCAR 180300Z AUTO 08013KT 9999 // NCD 22/04 Q1020

TAF (pilot weather forecast)

Forecast is more than 12 hours old.

Closest forecast is Learmonth Airport, 160.4 nm (297.1 km) N. Retrieved 2019/06/17 00:00 UTC (1 day ago):

TAF YPLM 172308Z 1800/1824 22008KT CAVOK FM180100 11010KT CAVOK FM180600 06008KT CAVOK FM181000 23007KT CAVOK